createdAt,value
2019-01-31T00:00:42.091Z,60.41
2019-01-31T00:03:59.110Z,60.85
2019-01-31T00:06:43.194Z,61.05
2019-01-31T00:09:38.445Z,61.01
2019-01-31T00:12:54.167Z,61.25
2019-01-31T00:16:17.417Z,61.27
2019-01-31T00:19:22.370Z,61.83
2019-01-31T00:22:17.874Z,62.01
2019-01-31T00:25:37.705Z,62.12
2019-01-31T00:28:54.272Z,62.26
2019-01-31T00:32:15.740Z,62.18
2019-01-31T00:35:19.740Z,62.17
2019-01-31T00:38:17.385Z,62.21
2019-01-31T00:41:13.569Z,62.20
2019-01-31T00:43:57.603Z,62.25
2019-01-31T00:47:10.451Z,62.18
2019-01-31T00:50:42.589Z,62.56
2019-01-31T00:53:57.327Z,63.17
2019-01-31T00:56:41.987Z,63.37
2019-01-31T01:00:01.743Z,63.52
2019-01-31T01:02:51.785Z,63.67
2019-01-31T01:05:58.367Z,64.15
2019-01-31T01:09:07.606Z,64.60
2019-01-31T01:12:12.183Z,64.90
2019-01-31T01:15:07.858Z,65.12
2019-01-31T01:17:52.135Z,65.46
2019-01-31T01:20:58.284Z,65.92
2019-01-31T01:23:49.579Z,65.84
2019-01-31T01:27:14.013Z,65.92
2019-01-31T01:30:27.895Z,65.94
2019-01-31T01:33:20.077Z,65.90
2019-01-31T01:36:08.718Z,65.74
2019-01-31T01:39:21.788Z,65.61
2019-01-31T01:42:18.396Z,65.39
2019-01-31T01:45:12.681Z,65.17
2019-01-31T01:48:37.946Z,64.91
2019-01-31T01:51:48.685Z,64.63
2019-01-31T01:54:54.463Z,64.40
2019-01-31T01:58:14.581Z,64.22
2019-01-31T02:01:16.858Z,63.88
2019-01-31T02:04:19.557Z,63.71
2019-01-31T02:07:28.126Z,63.75
2019-01-31T02:10:29.875Z,63.86
2019-01-31T02:13:38.850Z,63.91
2019-01-31T02:16:47.848Z,64.20
2019-01-31T02:19:38.273Z,64.40
2019-01-31T02:22:42.285Z,64.51
2019-01-31T02:25:21.330Z,64.64
2019-01-31T02:28:39.245Z,64.74
2019-01-31T02:31:51.572Z,64.89
2019-01-31T02:34:56.258Z,64.96
2019-01-31T02:37:54.958Z,64.90
2019-01-31T02:41:08.826Z,64.70
2019-01-31T02:43:51.749Z,64.46
2019-01-31T02:46:48.591Z,64.18
2019-01-31T02:50:11.461Z,63.92
2019-01-31T02:53:34.219Z,63.64
2019-01-31T02:56:57.091Z,63.40
2019-01-31T03:00:01.805Z,63.34
2019-01-31T03:02:54.886Z,63.11
2019-01-31T03:05:44.134Z,62.73
2019-01-31T03:08:48.343Z,62.45
2019-01-31T03:11:56.457Z,62.22
2019-01-31T03:14:39.569Z,61.90
2019-01-31T03:17:59.688Z,61.64
2019-01-31T03:21:12.008Z,61.46
2019-01-31T03:24:34.542Z,61.10
2019-01-31T03:27:27.452Z,61.25
2019-01-31T03:30:34.075Z,60.96
2019-01-31T03:33:23.318Z,60.95
2019-01-31T03:36:23.804Z,60.94
2019-01-31T03:39:09.575Z,60.74
2019-01-31T03:42:07.894Z,60.65
2019-01-31T03:44:44.469Z,60.91
2019-01-31T03:47:47.282Z,61.24
2019-01-31T03:50:58.811Z,61.34
2019-01-31T03:53:43.071Z,61.36
2019-01-31T03:56:58.700Z,61.32
2019-01-31T03:59:48.974Z,61.35
2019-01-31T04:02:52.185Z,61.53
2019-01-31T04:05:59.329Z,61.75
2019-01-31T04:08:29.491Z,61.93
2019-01-31T04:11:01.317Z,61.97
2019-01-31T04:13:31.338Z,62.04
2019-01-31T04:16:02.970Z,62.10
2019-01-31T04:18:34.890Z,62.19
2019-01-31T04:21:04.915Z,62.30
2019-01-31T04:23:36.064Z,62.42
2019-01-31T04:26:09.817Z,62.49
2019-01-31T04:28:41.546Z,62.94
2019-01-31T04:31:11.967Z,63.09
2019-01-31T04:33:42.499Z,63.30
2019-01-31T04:36:15.539Z,63.36
2019-01-31T04:38:46.173Z,63.46
2019-01-31T04:41:19.644Z,63.64
2019-01-31T04:43:50.046Z,63.73
2019-01-31T04:46:23.039Z,63.92
2019-01-31T04:48:53.575Z,64.18
2019-01-31T04:51:24.596Z,64.45
2019-01-31T04:53:56.430Z,65.04
2019-01-31T04:56:26.724Z,65.55
2019-01-31T04:58:58.246Z,65.45
2019-01-31T05:01:29.295Z,65.50
2019-01-31T05:03:59.538Z,65.84
2019-01-31T05:06:29.562Z,66.10
2019-01-31T05:09:00.092Z,66.08
2019-01-31T05:12:40.410Z,66.15
2019-01-31T05:14:48.101Z,66.50
2019-01-31T05:17:19.571Z,66.89
2019-01-31T05:20:16.429Z,67.46
2019-01-31T05:22:47.777Z,67.87
2019-01-31T05:25:18.306Z,68.00
2019-01-31T05:27:49.723Z,68.24
2019-01-31T05:30:20.311Z,68.50
2019-01-31T05:32:52.341Z,68.65
2019-01-31T05:35:22.665Z,68.61
2019-01-31T05:37:53.022Z,68.55
2019-01-31T05:40:23.798Z,68.41
2019-01-31T05:42:55.603Z,68.17
2019-01-31T05:45:25.834Z,67.87
2019-01-31T05:47:59.515Z,67.40
2019-01-31T05:50:30.351Z,67.00
2019-01-31T05:53:00.545Z,66.97
2019-01-31T05:55:34.193Z,66.84
2019-01-31T05:58:06.236Z,67.00
2019-01-31T06:00:39.102Z,67.15
2019-01-31T06:03:18.472Z,66.95
2019-01-31T06:05:48.801Z,66.75
2019-01-31T06:08:19.531Z,66.56
2019-01-31T06:11:07.111Z,66.70
2019-01-31T06:13:28.907Z,66.75
2019-01-31T06:15:59.994Z,66.94
2019-01-31T06:18:30.214Z,67.11
2019-01-31T06:21:00.988Z,67.30
2019-01-31T06:23:31.613Z,67.36
2019-01-31T06:26:02.084Z,67.37
2019-01-31T06:28:33.276Z,67.36
2019-01-31T06:31:06.696Z,67.36
2019-01-31T06:33:37.646Z,67.34
2019-01-31T06:36:10.211Z,67.27
2019-01-31T06:38:41.742Z,67.33
2019-01-31T06:41:18.852Z,67.76
2019-01-31T06:43:46.198Z,68.12
2019-01-31T06:46:17.603Z,68.26
2019-01-31T06:48:48.835Z,68.24
2019-01-31T06:51:19.817Z,68.44
2019-01-31T06:53:50.921Z,68.31
2019-01-31T06:56:21.697Z,68.26
2019-01-31T06:58:53.086Z,68.13
2019-01-31T07:01:27.615Z,67.99
2019-01-31T07:03:59.098Z,67.96
2019-01-31T07:06:30.480Z,67.94
2019-01-31T07:09:03.318Z,68.01
2019-01-31T07:11:35.465Z,67.94
2019-01-31T07:14:06.794Z,67.96
2019-01-31T07:16:41.765Z,68.22
2019-01-31T07:19:13.083Z,68.36
2019-01-31T07:21:44.203Z,68.22
2019-01-31T07:24:15.414Z,68.34
2019-01-31T07:26:47.505Z,68.47
2019-01-31T07:29:19.331Z,68.44
2019-01-31T07:31:50.646Z,68.26
2019-01-31T07:34:22.159Z,68.11
2019-01-31T07:36:53.298Z,67.98
2019-01-31T07:39:24.702Z,67.80
2019-01-31T07:41:57.994Z,67.71
2019-01-31T07:44:29.764Z,67.68
2019-01-31T07:47:01.509Z,67.69
2019-01-31T07:49:33.278Z,67.73
2019-01-31T07:52:05.528Z,67.73
2019-01-31T07:54:37.289Z,67.74
2019-01-31T07:57:10.075Z,67.84
2019-01-31T07:59:42.686Z,67.74
2019-01-31T08:02:14.772Z,67.68
2019-01-31T08:04:50.804Z,67.50
2019-01-31T08:07:28.727Z,67.35
2019-01-31T08:09:59.507Z,67.31
2019-01-31T08:12:34.503Z,67.25
2019-01-31T08:15:07.766Z,67.09
2019-01-31T08:17:40.481Z,66.96
2019-01-31T08:20:14.188Z,66.83
2019-01-31T08:22:46.511Z,66.71
2019-01-31T08:25:22.146Z,66.67
2019-01-31T08:27:54.780Z,66.79
2019-01-31T08:30:28.067Z,66.75
2019-01-31T08:33:00.925Z,66.65
2019-01-31T08:35:32.247Z,66.51
2019-01-31T08:38:03.356Z,66.28
2019-01-31T08:40:34.785Z,66.13
2019-01-31T08:43:07.001Z,65.81
2019-01-31T08:45:40.727Z,65.63
2019-01-31T08:48:18.480Z,65.45
2019-01-31T08:50:50.166Z,64.82
2019-01-31T08:53:23.734Z,64.66
2019-01-31T08:56:01.595Z,64.59
2019-01-31T08:58:39.313Z,64.41
2019-01-31T09:01:11.637Z,64.41
2019-01-31T09:03:48.413Z,64.37
2019-01-31T09:06:30.938Z,64.32
2019-01-31T09:09:05.164Z,64.19
2019-01-31T09:11:36.670Z,63.91
2019-01-31T09:14:07.502Z,63.60
2019-01-31T09:16:39.041Z,63.39
2019-01-31T09:19:10.817Z,63.09
2019-01-31T09:22:09.928Z,62.80
2019-01-31T09:25:14.718Z,62.52
2019-01-31T09:28:20.564Z,62.27
2019-01-31T09:31:01.757Z,61.83
2019-01-31T09:34:02.356Z,61.49
2019-01-31T09:37:11.818Z,61.43
2019-01-31T09:40:45.109Z,61.22
2019-01-31T09:43:50.156Z,61.04
2019-01-31T09:46:50.223Z,60.92
2019-01-31T09:50:04.075Z,60.62
2019-01-31T09:53:15.651Z,60.31
2019-01-31T09:56:29.003Z,59.88
2019-01-31T09:59:20.627Z,59.56
2019-01-31T10:02:20.708Z,59.32
2019-01-31T10:05:35.109Z,59.09
2019-01-31T10:08:40.892Z,58.96
2019-01-31T10:11:44.036Z,58.75
2019-01-31T10:14:54.567Z,58.57
2019-01-31T10:17:49.180Z,57.79
2019-01-31T10:20:46.602Z,57.39
2019-01-31T10:23:42.058Z,57.04
2019-01-31T10:26:59.287Z,56.71
2019-01-31T10:30:05.857Z,56.19
2019-01-31T10:33:07.234Z,56.03
2019-01-31T10:35:57.365Z,56.17
2019-01-31T10:39:06.420Z,56.03
2019-01-31T10:42:08.890Z,54.54
2019-01-31T10:45:24.635Z,53.69
2019-01-31T10:48:16.109Z,53.54
2019-01-31T10:51:25.072Z,53.42
2019-01-31T10:54:22.823Z,53.26
2019-01-31T10:57:30.780Z,52.72
2019-01-31T11:00:41.295Z,52.77
2019-01-31T11:03:51.453Z,52.75
2019-01-31T11:06:52.170Z,52.65
2019-01-31T11:10:18.183Z,52.84
2019-01-31T11:13:32.359Z,53.01
2019-01-31T11:17:06.348Z,52.84
2019-01-31T11:20:09.992Z,52.40
2019-01-31T11:23:38.095Z,52.24
2019-01-31T11:26:51.703Z,51.81
2019-01-31T11:30:00.392Z,50.74
2019-01-31T11:33:08.803Z,49.19
2019-01-31T11:36:46.791Z,48.24
2019-01-31T11:40:13.794Z,47.27
2019-01-31T11:43:32.812Z,46.90
2019-01-31T11:46:29.150Z,46.84
2019-01-31T11:49:54.780Z,46.75
2019-01-31T11:52:54.882Z,46.32
2019-01-31T11:56:20.470Z,46.19
2019-01-31T11:59:06.684Z,45.59
2019-01-31T12:01:39.731Z,45.66
2019-01-31T12:04:13.791Z,45.64
2019-01-31T12:06:44.601Z,45.21
2019-01-31T12:09:19.304Z,45.15
2019-01-31T12:11:53.402Z,44.87
2019-01-31T12:14:24.129Z,44.57
2019-01-31T12:16:56.616Z,44.74
2019-01-31T12:19:27.132Z,44.43
2019-01-31T12:22:01.156Z,44.11
2019-01-31T12:24:32.370Z,43.64
2019-01-31T12:27:07.348Z,43.65
2019-01-31T12:29:38.291Z,43.65
2019-01-31T12:32:10.722Z,43.87
2019-01-31T12:34:43.256Z,43.66
2019-01-31T12:37:18.660Z,43.55
2019-01-31T12:39:52.132Z,43.42
2019-01-31T12:42:23.808Z,43.19
2019-01-31T12:44:57.016Z,43.03
2019-01-31T12:47:32.689Z,42.96
2019-01-31T12:50:09.243Z,41.65
2019-01-31T12:52:45.281Z,41.65
2019-01-31T12:55:17.005Z,41.89
2019-01-31T12:57:50.529Z,41.93
2019-01-31T13:00:26.094Z,41.98
2019-01-31T13:02:57.310Z,41.61
2019-01-31T13:05:27.795Z,41.27
2019-01-31T13:07:59.988Z,41.27
2019-01-31T13:10:30.990Z,41.32
2019-01-31T13:13:01.724Z,41.45
2019-01-31T13:15:38.558Z,41.35
2019-01-31T13:18:09.668Z,41.71
2019-01-31T13:20:42.142Z,40.65
2019-01-31T13:23:14.355Z,40.79
2019-01-31T13:25:49.587Z,40.79
2019-01-31T13:28:23.924Z,41.14
2019-01-31T13:30:55.643Z,40.69
2019-01-31T13:33:29.209Z,40.04
2019-01-31T13:36:01.810Z,40.04
2019-01-31T13:38:37.322Z,40.54
2019-01-31T13:41:11.520Z,40.39
2019-01-31T13:43:57.075Z,40.40
2019-01-31T13:46:23.904Z,40.68
2019-01-31T13:49:07.441Z,40.57
2019-01-31T13:51:43.379Z,39.97
2019-01-31T13:54:19.846Z,39.97
2019-01-31T13:56:51.043Z,40.05
2019-01-31T13:59:22.762Z,40.15
2019-01-31T14:01:55.428Z,40.79
2019-01-31T14:04:28.647Z,40.63
2019-01-31T14:06:59.890Z,40.85
2019-01-31T14:09:33.055Z,41.17
2019-01-31T14:12:07.474Z,41.17
2019-01-31T14:14:38.822Z,41.00
2019-01-31T14:17:10.905Z,41.23
2019-01-31T14:19:41.596Z,41.45
2019-01-31T14:22:12.077Z,41.21
2019-01-31T14:24:43.938Z,41.21
2019-01-31T14:27:16.319Z,41.68
2019-01-31T14:29:49.416Z,42.09
2019-01-31T14:32:22.611Z,42.11
2019-01-31T14:34:57.132Z,42.29
2019-01-31T14:37:29.133Z,42.37
2019-01-31T14:39:59.632Z,42.49
2019-01-31T14:42:31.060Z,42.72
2019-01-31T14:45:03.843Z,42.96
2019-01-31T14:47:37.164Z,42.97
2019-01-31T14:50:10.211Z,43.03
2019-01-31T14:52:42.976Z,42.95
2019-01-31T14:55:15.437Z,43.07
2019-01-31T14:57:45.816Z,43.24
2019-01-31T15:00:19.087Z,43.64
2019-01-31T15:02:52.760Z,43.88
2019-01-31T15:05:25.473Z,44.18
2019-01-31T15:07:58.673Z,44.26
2019-01-31T15:10:31.506Z,44.36
2019-01-31T15:13:03.452Z,44.57
2019-01-31T15:15:34.315Z,44.83
2019-01-31T15:18:08.052Z,45.12
2019-01-31T15:20:48.260Z,45.42
2019-01-31T15:23:19.479Z,45.64
2019-01-31T15:25:50.759Z,45.79
2019-01-31T15:28:21.591Z,45.82
2019-01-31T15:31:07.735Z,46.10
2019-01-31T15:33:41.817Z,46.12
2019-01-31T15:36:24.715Z,46.48
2019-01-31T15:38:57.009Z,46.87
2019-01-31T15:41:27.932Z,47.13
2019-01-31T15:43:59.844Z,47.37
2019-01-31T15:46:30.688Z,47.54
2019-01-31T15:49:01.202Z,47.73
2019-01-31T15:51:35.729Z,48.01
2019-01-31T15:54:07.708Z,48.14
2019-01-31T15:56:38.703Z,48.57
2019-01-31T15:59:09.359Z,48.91
2019-01-31T16:01:44.848Z,49.18
2019-01-31T16:04:17.507Z,49.28
2019-01-31T16:06:48.362Z,49.21
2019-01-31T16:09:18.974Z,49.21
2019-01-31T16:11:49.801Z,49.21
2019-01-31T16:14:22.137Z,49.26
2019-01-31T16:16:52.462Z,49.24
2019-01-31T16:19:23.787Z,49.13
2019-01-31T16:21:57.322Z,49.11
2019-01-31T16:24:30.854Z,49.03
2019-01-31T16:27:06.464Z,48.87
2019-01-31T16:29:41.187Z,48.55
2019-01-31T16:32:13.668Z,48.46
2019-01-31T16:34:48.802Z,48.49
2019-01-31T16:37:23.242Z,48.47
2019-01-31T16:40:08.364Z,48.41
2019-01-31T16:42:51.695Z,48.27
2019-01-31T16:45:25.786Z,48.08
2019-01-31T16:47:59.166Z,47.97
2019-01-31T16:50:32.549Z,48.20
2019-01-31T16:53:06.923Z,48.32
2019-01-31T16:55:39.899Z,48.39
2019-01-31T16:58:31.264Z,48.47
2019-01-31T17:01:03.689Z,48.67
2019-01-31T17:03:35.381Z,48.63
2019-01-31T17:06:10.246Z,48.65
2019-01-31T17:08:41.488Z,48.79
2019-01-31T17:11:12.484Z,48.82
2019-01-31T17:13:46.092Z,48.98
2019-01-31T17:16:18.122Z,49.26
2019-01-31T17:18:49.317Z,49.86
2019-01-31T17:21:25.292Z,50.20
2019-01-31T17:23:59.497Z,50.42
2019-01-31T17:29:36.778Z,50.92
2019-01-31T17:32:11.025Z,51.05
2019-01-31T17:34:45.345Z,50.98
2019-01-31T17:37:22.172Z,51.01
2019-01-31T17:40:11.422Z,51.07
2019-01-31T17:42:46.389Z,51.16
2019-01-31T17:45:29.918Z,51.15
2019-01-31T17:48:00.455Z,51.29
2019-01-31T17:50:32.968Z,51.69
2019-01-31T17:53:06.942Z,51.75
2019-01-31T17:55:37.925Z,51.93
2019-01-31T17:58:09.680Z,51.92
2019-01-31T18:00:49.592Z,51.88
2019-01-31T18:03:20.703Z,52.01
2019-01-31T18:05:56.457Z,52.08
2019-01-31T18:08:28.213Z,52.15
2019-01-31T18:11:03.802Z,52.09
2019-01-31T18:13:37.276Z,52.12
2019-01-31T18:16:11.388Z,52.14
2019-01-31T18:18:45.673Z,52.19
2019-01-31T18:21:21.879Z,52.11
2019-01-31T18:23:53.001Z,52.13
2019-01-31T18:26:29.406Z,52.06
2019-01-31T18:29:12.609Z,52.06
2019-01-31T18:31:50.905Z,51.92
2019-01-31T18:34:26.769Z,51.84
2019-01-31T18:36:59.109Z,51.74
2019-01-31T18:39:31.246Z,51.62
2019-01-31T18:42:11.018Z,51.66
2019-01-31T18:44:43.799Z,51.76
2019-01-31T18:47:17.111Z,51.88
2019-01-31T18:49:51.933Z,51.91
2019-01-31T18:52:24.685Z,52.01
2019-01-31T18:54:58.586Z,52.15
2019-01-31T18:57:30.713Z,52.34
2019-01-31T19:00:02.294Z,52.36
2019-01-31T19:02:35.150Z,52.32
2019-01-31T19:05:08.733Z,52.44
2019-01-31T19:07:42.060Z,52.49
2019-01-31T19:10:14.158Z,52.58
2019-01-31T19:12:44.975Z,52.79
2019-01-31T19:15:24.033Z,52.88
2019-01-31T19:18:05.573Z,52.90
2019-01-31T19:20:33.314Z,52.93
2019-01-31T19:23:09.651Z,52.99
2019-01-31T19:25:47.337Z,53.03
2019-01-31T19:28:27.846Z,53.00
2019-01-31T19:30:58.908Z,52.97
2019-01-31T19:33:30.243Z,52.96
2019-01-31T19:36:02.642Z,53.02
2019-01-31T19:38:36.735Z,52.86
2019-01-31T19:41:11.032Z,52.87
2019-01-31T19:43:42.830Z,52.97
2019-01-31T19:46:16.452Z,53.06
2019-01-31T19:48:51.794Z,53.04
2019-01-31T19:51:28.704Z,53.05
2019-01-31T19:54:01.929Z,53.26
2019-01-31T19:56:39.250Z,53.24
2019-01-31T19:59:12.452Z,53.21
2019-01-31T20:01:46.504Z,53.22
2019-01-31T20:04:26.079Z,53.34
2019-01-31T20:06:56.864Z,53.36
2019-01-31T20:09:32.846Z,53.46
2019-01-31T20:12:07.188Z,53.52
2019-01-31T20:14:43.515Z,53.72
2019-01-31T20:17:15.259Z,53.74
2019-01-31T20:19:50.269Z,53.90
2019-01-31T20:22:22.778Z,53.96
2019-01-31T20:24:59.855Z,54.31
2019-01-31T20:27:31.702Z,54.54
2019-01-31T20:30:03.316Z,54.62
2019-01-31T20:32:35.087Z,54.85
2019-01-31T20:35:07.563Z,55.06
2019-01-31T20:37:38.289Z,55.26
2019-01-31T20:40:10.525Z,55.60
2019-01-31T20:42:43.859Z,55.60
2019-01-31T20:45:16.384Z,55.82
2019-01-31T20:47:47.123Z,56.10
2019-01-31T20:50:20.261Z,56.27
2019-01-31T20:52:51.156Z,56.40
2019-01-31T20:55:21.899Z,56.47
2019-01-31T20:57:52.960Z,56.91
2019-01-31T21:00:33.512Z,56.95
2019-01-31T21:03:07.062Z,57.28
2019-01-31T21:05:40.822Z,57.40
2019-01-31T21:08:13.659Z,57.68
2019-01-31T21:10:44.860Z,58.15
2019-01-31T21:13:16.106Z,58.47
2019-01-31T21:15:46.355Z,58.45
2019-01-31T21:18:17.777Z,58.67
2019-01-31T21:20:48.765Z,58.90
2019-01-31T21:23:19.408Z,59.32
2019-01-31T21:25:49.652Z,59.40
2019-01-31T21:28:20.028Z,59.63
2019-01-31T21:30:50.753Z,59.93
2019-01-31T21:33:21.534Z,60.05
2019-01-31T21:35:52.568Z,60.12
2019-01-31T21:38:23.560Z,60.34
2019-01-31T21:40:58.335Z,60.44
2019-01-31T21:43:30.479Z,60.58
2019-01-31T21:46:02.805Z,60.69
2019-01-31T21:48:34.128Z,60.70
2019-01-31T21:51:04.648Z,60.77
2019-01-31T21:53:36.671Z,60.88
2019-01-31T21:56:07.117Z,61.34
2019-01-31T21:58:37.126Z,61.52
2019-01-31T22:01:07.390Z,61.57
2019-01-31T22:03:37.386Z,61.74
2019-01-31T22:06:07.718Z,62.11
2019-01-31T22:08:38.576Z,62.16
2019-01-31T22:11:10.869Z,62.09
2019-01-31T22:13:41.125Z,62.04
2019-01-31T22:16:11.199Z,62.00
2019-01-31T22:18:41.521Z,61.91
2019-01-31T22:21:11.684Z,62.05
2019-01-31T22:23:41.744Z,62.31
2019-01-31T22:26:13.993Z,62.41
2019-01-31T22:28:44.241Z,62.72
2019-01-31T22:31:15.088Z,62.80
2019-01-31T22:33:45.470Z,62.89
2019-01-31T22:36:16.678Z,62.90
2019-01-31T22:38:46.781Z,62.74
2019-01-31T22:41:19.860Z,62.77
2019-01-31T22:43:50.036Z,62.80
2019-01-31T22:46:21.287Z,62.79
2019-01-31T22:48:56.032Z,62.86
2019-01-31T22:51:28.361Z,62.89
2019-01-31T22:53:58.852Z,63.11
2019-01-31T22:56:30.283Z,63.35
2019-01-31T22:59:00.242Z,63.43
2019-01-31T23:01:51.890Z,63.42
2019-01-31T23:04:25.620Z,63.51
2019-01-31T23:06:56.159Z,63.44
2019-01-31T23:09:26.324Z,63.68
2019-01-31T23:11:58.198Z,63.58
2019-01-31T23:14:31.393Z,63.62
2019-01-31T23:17:02.221Z,63.56
2019-01-31T23:19:32.941Z,63.71
2019-01-31T23:22:04.747Z,63.87
2019-01-31T23:24:34.641Z,63.75
2019-01-31T23:27:05.052Z,63.67
2019-01-31T23:29:35.511Z,63.81
2019-01-31T23:32:07.663Z,63.82
2019-01-31T23:34:37.641Z,63.85
2019-01-31T23:37:08.428Z,63.86
2019-01-31T23:39:38.939Z,63.90
2019-01-31T23:42:08.999Z,63.95
2019-01-31T23:44:40.633Z,63.89
2019-01-31T23:47:10.826Z,63.96
2019-01-31T23:49:40.779Z,64.03
2019-01-31T23:52:10.848Z,63.92
2019-01-31T23:54:41.302Z,64.04
2019-01-31T23:57:11.762Z,64.25
2019-01-31T23:59:41.870Z,64.37
